createdAt,value
2017-08-04T00:00:58.354Z,987.87
2017-08-04T00:01:58.293Z,987.87
2017-08-04T00:02:58.437Z,987.91
2017-08-04T00:03:58.491Z,987.88
2017-08-04T00:04:58.223Z,987.87
2017-08-04T00:05:58.266Z,987.97
2017-08-04T00:06:58.213Z,987.95
2017-08-04T00:07:58.170Z,987.98
2017-08-04T00:08:57.904Z,988.00
2017-08-04T00:09:57.940Z,987.98
2017-08-04T00:10:57.975Z,988.01
2017-08-04T00:11:58.066Z,987.95
2017-08-04T00:12:57.990Z,988.04
2017-08-04T00:13:58.443Z,988.03
2017-08-04T00:14:58.470Z,987.99
2017-08-04T00:15:58.307Z,987.97
2017-08-04T00:16:58.438Z,987.98
2017-08-04T00:17:58.461Z,987.98
2017-08-04T00:18:58.486Z,988.03
2017-08-04T00:19:58.435Z,987.98
2017-08-04T00:20:58.146Z,988.04
2017-08-04T00:21:58.202Z,987.96
2017-08-04T00:22:58.112Z,988.00
2017-08-04T00:23:58.249Z,988.03
2017-08-04T00:24:57.983Z,987.94
2017-08-04T00:25:58.021Z,987.96
2017-08-04T00:26:58.039Z,987.95
2017-08-04T00:27:57.974Z,987.99
2017-08-04T00:28:58.521Z,987.95
2017-08-04T00:29:58.450Z,987.90
2017-08-04T00:30:58.478Z,987.97
2017-08-04T00:31:58.607Z,987.92
2017-08-04T00:32:58.533Z,987.99
2017-08-04T00:33:58.458Z,987.90
2017-08-04T00:34:58.483Z,987.95
2017-08-04T00:35:58.215Z,987.92
2017-08-04T00:36:58.444Z,988.01
2017-08-04T00:37:58.208Z,987.98
2017-08-04T00:38:58.160Z,988.07
2017-08-04T00:39:58.191Z,988.06
2017-08-04T00:40:58.016Z,988.01
2017-08-04T00:41:58.491Z,988.01
2017-08-04T00:42:58.023Z,988.01
2017-08-04T00:43:58.056Z,988.01
2017-08-04T00:44:58.090Z,987.94
2017-08-04T00:45:58.017Z,987.91
2017-08-04T00:46:58.454Z,987.88
2017-08-04T00:47:58.500Z,987.97
2017-08-04T00:48:58.427Z,988.05
2017-08-04T00:49:58.648Z,988.09
2017-08-04T00:50:58.385Z,987.97
2017-08-04T00:51:58.613Z,988.06
2017-08-04T00:52:58.554Z,988.05
2017-08-04T00:53:58.187Z,988.03
2017-08-04T00:54:58.217Z,987.99
2017-08-04T00:55:58.245Z,988.05
2017-08-04T00:56:58.334Z,988.02
2017-08-04T00:57:58.059Z,987.95
2017-08-04T00:58:58.086Z,987.94
2017-08-04T00:59:58.134Z,987.96
2017-08-04T01:02:33.001Z,988.06
2017-08-04T01:02:34.007Z,988.10
2017-08-04T01:02:58.058Z,988.01
2017-08-04T01:06:00.790Z,988.04
2017-08-04T01:06:01.498Z,988.10
2017-08-04T01:06:02.107Z,988.05
2017-08-04T01:08:33.959Z,988.05
2017-08-04T01:08:34.667Z,988.08
2017-08-04T01:08:58.115Z,988.00
2017-08-04T01:12:00.773Z,988.04
2017-08-04T01:12:01.687Z,988.02
2017-08-04T01:12:02.395Z,988.03
2017-08-04T01:14:34.112Z,988.08
2017-08-04T01:14:34.721Z,987.99
2017-08-04T01:14:58.073Z,988.07
2017-08-04T01:18:00.946Z,988.06
2017-08-04T01:18:01.760Z,988.06
2017-08-04T01:18:02.366Z,988.11
2017-08-04T01:20:34.004Z,988.04
2017-08-04T01:20:34.913Z,988.09
2017-08-04T01:20:58.167Z,988.06
2017-08-04T01:23:42.858Z,988.11
2017-08-04T01:23:43.564Z,988.11
2017-08-04T01:23:58.097Z,988.16
2017-08-04T01:26:36.039Z,988.08
2017-08-04T01:26:36.743Z,988.12
2017-08-04T01:26:58.088Z,988.02
2017-08-04T01:29:43.846Z,988.03
2017-08-04T01:29:44.656Z,988.15
2017-08-04T01:29:58.185Z,988.05
2017-08-04T01:32:35.312Z,988.07
2017-08-04T01:32:36.122Z,988.16
2017-08-04T01:32:58.168Z,988.09
2017-08-04T01:35:43.553Z,988.13
2017-08-04T01:35:44.292Z,988.08
2017-08-04T01:35:58.192Z,988.05
2017-08-04T01:38:33.287Z,988.00
2017-08-04T01:38:34.196Z,988.07
2017-08-04T01:38:58.145Z,988.03
2017-08-04T01:41:44.791Z,988.05
2017-08-04T01:41:45.600Z,988.08
2017-08-04T01:41:58.125Z,988.15
2017-08-04T01:44:33.081Z,988.21
2017-08-04T01:44:33.684Z,988.17
2017-08-04T01:44:58.137Z,988.21
2017-08-04T01:47:46.001Z,988.19
2017-08-04T01:47:46.810Z,988.21
2017-08-04T01:47:58.142Z,988.16
2017-08-04T01:50:43.487Z,988.17
2017-08-04T01:50:44.293Z,988.19
2017-08-04T01:50:58.327Z,988.17
2017-08-04T01:53:46.884Z,988.15
2017-08-04T01:53:47.583Z,988.11
2017-08-04T01:53:58.209Z,988.16
2017-08-04T01:56:34.949Z,988.16
2017-08-04T01:56:35.553Z,988.13
2017-08-04T01:56:58.412Z,988.15
2017-08-04T01:59:42.907Z,988.15
2017-08-04T01:59:43.515Z,988.13
2017-08-04T01:59:44.222Z,988.14
2017-08-04T01:59:58.253Z,988.10
2017-08-04T02:00:58.691Z,988.11
2017-08-04T02:01:59.026Z,988.12
2017-08-04T02:02:58.468Z,988.15
2017-08-04T02:03:58.697Z,988.24
2017-08-04T02:04:58.226Z,988.24
2017-08-04T02:05:58.279Z,988.16
2017-08-04T02:06:58.323Z,988.22
2017-08-04T02:07:58.249Z,988.17
2017-08-04T02:08:58.695Z,988.18
2017-08-04T02:09:58.725Z,988.19
2017-08-04T02:10:58.844Z,988.14
2017-08-04T02:11:58.871Z,988.14
2017-08-04T02:12:58.700Z,988.07
2017-08-04T02:13:58.741Z,988.14
2017-08-04T02:14:58.676Z,988.01
2017-08-04T02:15:58.706Z,988.02
2017-08-04T02:16:58.940Z,987.99
2017-08-04T02:17:58.475Z,987.96
2017-08-04T02:18:58.489Z,988.05
2017-08-04T02:19:58.304Z,988.17
2017-08-04T02:20:58.325Z,988.06
2017-08-04T02:21:58.658Z,988.10
2017-08-04T02:22:58.275Z,988.13
2017-08-04T02:23:58.762Z,988.01
2017-08-04T02:24:58.792Z,988.09
2017-08-04T02:25:58.817Z,988.00
2017-08-04T02:26:58.944Z,988.05
2017-08-04T02:27:58.782Z,987.97
2017-08-04T02:28:58.714Z,987.95
2017-08-04T02:29:58.839Z,987.90
2017-08-04T02:30:58.870Z,987.93
2017-08-04T02:31:58.693Z,987.92
2017-08-04T02:32:58.629Z,987.87
2017-08-04T02:33:58.555Z,987.92
2017-08-04T02:34:58.681Z,987.82
2017-08-04T02:35:58.631Z,987.84
2017-08-04T02:36:58.764Z,987.84
2017-08-04T02:37:58.392Z,987.84
2017-08-04T02:38:58.308Z,987.86
2017-08-04T02:39:58.744Z,987.91
2017-08-04T02:40:58.862Z,987.82
2017-08-04T02:41:58.791Z,987.79
2017-08-04T02:42:58.712Z,987.83
2017-08-04T02:43:58.843Z,987.89
2017-08-04T02:44:58.872Z,987.89
2017-08-04T02:45:59.002Z,987.93
2017-08-04T02:46:58.933Z,987.80
2017-08-04T02:47:58.756Z,987.80
2017-08-04T02:48:58.781Z,987.88
2017-08-04T02:49:58.618Z,987.89
2017-08-04T02:50:58.551Z,987.80
2017-08-04T02:51:58.777Z,987.80
2017-08-04T02:52:58.431Z,987.81
2017-08-04T02:53:58.384Z,987.92
2017-08-04T02:54:58.407Z,987.83
2017-08-04T02:55:58.451Z,987.84
2017-08-04T02:56:58.579Z,987.79
2017-08-04T02:57:58.417Z,987.85
2017-08-04T02:58:58.975Z,987.96
2017-08-04T02:59:58.897Z,987.90
2017-08-04T03:00:58.936Z,987.90
2017-08-04T03:01:58.968Z,987.90
2017-08-04T03:02:58.803Z,987.88
2017-08-04T03:03:58.929Z,988.02
2017-08-04T03:04:58.966Z,988.03
2017-08-04T03:05:58.801Z,988.09
2017-08-04T03:06:58.832Z,988.13
2017-08-04T03:07:58.763Z,988.01
2017-08-04T03:08:58.704Z,987.98
2017-08-04T03:09:58.387Z,987.94
2017-08-04T03:10:58.420Z,987.96
2017-08-04T03:11:58.574Z,987.92
2017-08-04T03:12:58.410Z,987.89
2017-08-04T03:13:58.796Z,987.92
2017-08-04T03:14:58.980Z,987.87
2017-08-04T03:15:59.035Z,987.87
2017-08-04T03:16:58.966Z,987.87
2017-08-04T03:17:58.892Z,987.84
2017-08-04T03:18:58.935Z,987.83
2017-08-04T03:19:58.956Z,987.92
2017-08-04T03:20:58.988Z,987.96
2017-08-04T03:21:58.918Z,987.95
2017-08-04T03:22:58.648Z,987.97
2017-08-04T03:23:58.779Z,987.88
2017-08-04T03:24:58.427Z,987.89
2017-08-04T03:25:58.541Z,987.90
2017-08-04T03:26:58.563Z,987.86
2017-08-04T03:27:58.508Z,987.91
2017-08-04T03:28:58.453Z,987.86
2017-08-04T03:29:58.886Z,987.92
2017-08-04T03:30:59.018Z,987.91
2017-08-04T03:31:59.059Z,987.91
2017-08-04T03:32:58.894Z,987.88
2017-08-04T03:33:59.040Z,987.93
2017-08-04T03:34:58.869Z,987.98
2017-08-04T03:35:59.001Z,987.92
2017-08-04T03:36:58.936Z,987.87
2017-08-04T03:37:58.654Z,987.97
2017-08-04T03:38:58.676Z,987.96
2017-08-04T03:39:58.823Z,987.91
2017-08-04T03:40:58.849Z,987.95
2017-08-04T03:41:58.782Z,987.95
2017-08-04T03:42:58.508Z,987.95
2017-08-04T03:43:58.530Z,987.98
2017-08-04T03:44:58.465Z,987.92
2017-08-04T03:45:58.995Z,987.96
2017-08-04T03:46:58.931Z,987.99
2017-08-04T03:49:30.883Z,987.96
2017-08-04T03:49:31.495Z,987.91
2017-08-04T03:49:58.552Z,987.84
2017-08-04T03:50:58.993Z,987.92
2017-08-04T03:51:58.927Z,987.91
2017-08-04T03:52:59.062Z,987.98
2017-08-04T03:53:58.810Z,988.01
2017-08-04T03:54:58.727Z,987.98
2017-08-04T03:55:58.867Z,987.98
2017-08-04T03:56:58.816Z,987.97
2017-08-04T03:57:58.869Z,987.90
2017-08-04T03:58:58.613Z,987.98
2017-08-04T03:59:58.582Z,987.89
2017-08-04T04:00:58.583Z,987.92
2017-08-04T04:01:58.653Z,987.90
2017-08-04T04:02:58.581Z,987.96
2017-08-04T04:03:59.136Z,987.97
2017-08-04T04:04:59.182Z,987.95
2017-08-04T04:05:59.129Z,987.89
2017-08-04T04:06:59.053Z,987.96
2017-08-04T04:07:58.991Z,987.94
2017-08-04T04:08:59.234Z,987.96
2017-08-04T04:09:58.752Z,988.05
2017-08-04T04:10:58.797Z,987.99
2017-08-04T04:11:58.926Z,988.00
2017-08-04T04:12:58.948Z,987.99
2017-08-04T04:13:58.975Z,988.02
2017-08-04T04:14:58.920Z,987.99
2017-08-04T04:15:58.670Z,988.02
2017-08-04T04:16:58.596Z,988.04
2017-08-04T04:17:58.920Z,988.00
2017-08-04T04:18:59.149Z,988.00
2017-08-04T04:19:59.169Z,988.02
2017-08-04T04:20:59.015Z,987.97
2017-08-04T04:21:59.144Z,988.01
2017-08-04T04:22:59.189Z,987.99
2017-08-04T04:23:59.220Z,988.09
2017-08-04T04:24:59.010Z,988.07
2017-08-04T04:25:59.280Z,988.02
2017-08-04T04:26:59.155Z,988.14
2017-08-04T04:27:58.912Z,988.07
2017-08-04T04:28:58.961Z,988.03
2017-08-04T04:29:58.865Z,988.02
2017-08-04T04:30:58.650Z,988.12
2017-08-04T04:31:58.628Z,987.99
2017-08-04T04:32:58.803Z,987.96
2017-08-04T04:33:58.646Z,987.99
2017-08-04T04:34:58.637Z,987.94
2017-08-04T04:35:59.169Z,987.96
2017-08-04T04:36:59.233Z,987.88
2017-08-04T04:37:59.224Z,987.97
2017-08-04T04:38:59.227Z,987.90
2017-08-04T04:39:59.090Z,987.86
2017-08-04T04:40:59.236Z,987.96
2017-08-04T04:41:59.102Z,987.97
2017-08-04T04:42:59.216Z,988.00
2017-08-04T04:43:59.156Z,987.97
2017-08-04T04:44:59.011Z,988.10
2017-08-04T04:45:58.903Z,988.00
2017-08-04T04:46:58.962Z,988.05
2017-08-04T04:47:58.772Z,988.01
2017-08-04T04:48:58.838Z,987.99
2017-08-04T04:49:58.826Z,987.98
2017-08-04T04:50:58.712Z,987.98
2017-08-04T04:51:59.045Z,988.06
2017-08-04T04:52:59.163Z,988.05
2017-08-04T04:53:59.176Z,988.00
2017-08-04T04:54:59.168Z,988.08
2017-08-04T04:55:59.175Z,988.08
2017-08-04T04:56:59.188Z,988.12
2017-08-04T04:57:59.186Z,988.14
2017-08-04T04:58:59.220Z,988.13
2017-08-04T04:59:59.018Z,988.13
2017-08-04T05:00:58.956Z,988.10
2017-08-04T05:01:58.977Z,988.10
2017-08-04T05:02:59.091Z,988.11
2017-08-04T05:03:59.041Z,988.10
2017-08-04T05:04:58.770Z,988.11
2017-08-04T05:05:58.785Z,988.22
2017-08-04T05:06:58.853Z,988.16
2017-08-04T05:07:58.802Z,988.16
2017-08-04T05:08:58.756Z,988.11
2017-08-04T05:09:59.276Z,988.11
2017-08-04T05:10:59.291Z,988.14
2017-08-04T05:11:59.336Z,988.15
2017-08-04T05:12:59.252Z,988.06
2017-08-04T05:13:59.164Z,988.07
2017-08-04T05:14:59.271Z,988.05
2017-08-04T05:15:58.976Z,987.99
2017-08-04T05:16:59.002Z,988.10
2017-08-04T05:17:59.040Z,987.96
2017-08-04T05:18:59.071Z,987.97
2017-08-04T05:19:59.120Z,987.99
2017-08-04T05:20:58.755Z,988.05
2017-08-04T05:21:58.898Z,988.05
2017-08-04T05:22:58.830Z,988.13
2017-08-04T05:23:58.861Z,988.07
2017-08-04T05:24:59.166Z,988.06
2017-08-04T05:25:59.202Z,988.03
2017-08-04T05:26:59.366Z,988.07
2017-08-04T05:27:59.363Z,988.12
2017-08-04T05:28:59.298Z,988.11
2017-08-04T05:29:59.292Z,988.16
2017-08-04T05:30:59.260Z,988.10
2017-08-04T05:31:59.312Z,988.06
2017-08-04T05:32:59.049Z,988.07
2017-08-04T05:33:58.995Z,988.06
2017-08-04T05:34:59.032Z,988.08
2017-08-04T05:35:58.812Z,988.12
2017-08-04T05:36:58.818Z,988.05
2017-08-04T05:37:58.836Z,988.06
2017-08-04T05:38:58.795Z,988.11
2017-08-04T05:39:58.850Z,988.04
2017-08-04T05:40:58.883Z,988.02
2017-08-04T05:41:59.255Z,988.10
2017-08-04T05:42:59.402Z,988.09
2017-08-04T05:43:59.379Z,988.09
2017-08-04T05:44:59.284Z,988.10
2017-08-04T05:45:59.450Z,988.08
2017-08-04T05:46:59.413Z,988.10
2017-08-04T05:47:59.312Z,988.09
2017-08-04T05:48:59.566Z,988.08
2017-08-04T05:49:59.086Z,988.09
2017-08-04T05:50:59.200Z,988.09
2017-08-04T05:51:59.100Z,988.12
2017-08-04T05:52:58.830Z,988.13
2017-08-04T05:53:59.458Z,988.18
2017-08-04T05:54:58.879Z,988.20
2017-08-04T05:55:58.874Z,988.15
2017-08-04T05:56:58.984Z,988.16
2017-08-04T05:57:58.901Z,988.25
2017-08-04T05:58:59.391Z,988.15
2017-08-04T05:59:59.468Z,988.21
2017-08-04T06:00:59.566Z,988.18
2017-08-04T06:01:59.465Z,988.23
2017-08-04T06:02:59.416Z,988.19
2017-08-04T06:03:59.558Z,988.18
2017-08-04T06:04:59.204Z,988.22
2017-08-04T06:05:59.225Z,988.24
2017-08-04T06:06:59.124Z,988.26
2017-08-04T06:07:59.127Z,988.23
2017-08-04T06:08:59.225Z,988.22
2017-08-04T06:09:58.972Z,988.30
2017-08-04T06:10:58.944Z,988.20
2017-08-04T06:11:58.935Z,988.24
2017-08-04T06:12:58.917Z,988.27
2017-08-04T06:13:59.414Z,988.26
2017-08-04T06:14:59.392Z,988.25
2017-08-04T06:15:59.385Z,988.26
2017-08-04T06:16:59.538Z,988.29
2017-08-04T06:17:59.381Z,988.26
2017-08-04T06:18:59.401Z,988.24
2017-08-04T06:19:59.506Z,988.26
2017-08-04T06:20:59.364Z,988.30
2017-08-04T06:21:59.291Z,988.26
2017-08-04T06:22:59.298Z,988.25
2017-08-04T06:23:59.299Z,988.25
2017-08-04T06:24:59.288Z,988.31
2017-08-04T06:25:59.006Z,988.28
2017-08-04T06:26:59.004Z,988.24
2017-08-04T06:27:58.925Z,988.21
2017-08-04T06:28:58.988Z,988.26
2017-08-04T06:29:59.317Z,988.20
2017-08-04T06:30:59.401Z,988.24
2017-08-04T06:31:59.496Z,988.25
2017-08-04T06:32:59.533Z,988.23
2017-08-04T06:33:59.384Z,988.21
2017-08-04T06:34:59.517Z,988.21
2017-08-04T06:35:59.564Z,988.18
2017-08-04T06:36:59.671Z,988.15
2017-08-04T06:37:59.685Z,988.19
2017-08-04T06:38:59.625Z,988.08
2017-08-04T06:39:59.267Z,988.02
2017-08-04T06:40:59.314Z,988.06
2017-08-04T06:41:59.029Z,988.07
2017-08-04T06:42:59.048Z,988.08
2017-08-04T06:43:59.173Z,988.05
2017-08-04T06:44:59.121Z,987.93
2017-08-04T06:45:59.255Z,987.87
2017-08-04T06:46:59.132Z,987.95
2017-08-04T06:47:59.549Z,987.88
2017-08-04T06:48:59.723Z,987.93
2017-08-04T06:49:59.560Z,987.91
2017-08-04T06:50:59.536Z,987.96
2017-08-04T06:51:59.802Z,987.86
2017-08-04T06:52:59.681Z,987.91
2017-08-04T06:53:59.537Z,987.97
2017-08-04T06:54:59.833Z,987.87
2017-08-04T06:55:59.292Z,987.91
2017-08-04T06:56:59.401Z,987.91
2017-08-04T06:57:59.068Z,987.97
2017-08-04T06:58:59.047Z,988.00
2017-08-04T06:59:59.050Z,988.01
2017-08-04T07:00:59.225Z,987.96
2017-08-04T07:01:59.064Z,988.02
2017-08-04T07:02:59.463Z,988.00
2017-08-04T07:03:59.578Z,987.92
2017-08-04T07:04:59.673Z,987.97
2017-08-04T07:05:59.537Z,988.01
2017-08-04T07:06:59.815Z,987.98
2017-08-04T07:07:59.618Z,988.03
2017-08-04T07:08:59.567Z,988.08
2017-08-04T07:09:59.633Z,987.97
2017-08-04T07:10:59.646Z,987.96
2017-08-04T07:11:59.724Z,987.93
2017-08-04T07:12:59.470Z,987.95
2017-08-04T07:13:59.433Z,987.97
2017-08-04T07:14:59.169Z,987.91
2017-08-04T07:15:59.219Z,987.96
2017-08-04T07:16:59.270Z,987.92
2017-08-04T07:17:59.210Z,987.95
2017-08-04T07:18:59.137Z,987.90
2017-08-04T07:19:59.537Z,987.89
2017-08-04T07:20:59.667Z,987.92
2017-08-04T07:21:39.648Z,987.92
2017-08-04T07:22:04.832Z,987.97
2017-08-04T07:22:59.235Z,987.94
2017-08-04T07:23:59.670Z,987.96
2017-08-04T07:24:59.704Z,987.95
2017-08-04T07:25:59.744Z,987.99
2017-08-04T07:26:59.758Z,987.97
2017-08-04T07:27:59.544Z,987.94
2017-08-04T07:28:59.638Z,987.90
2017-08-04T07:29:59.836Z,987.92
2017-08-04T07:30:59.170Z,987.94
2017-08-04T07:32:13.830Z,987.96
2017-08-04T07:32:59.306Z,987.98
2017-08-04T07:33:59.405Z,987.95
2017-08-04T07:34:59.601Z,987.88
2017-08-04T07:35:59.601Z,987.89
2017-08-04T07:36:59.654Z,987.95
2017-08-04T07:37:59.930Z,987.97
2017-08-04T07:38:59.769Z,987.93
2017-08-04T07:39:59.622Z,987.98
2017-08-04T07:40:59.633Z,987.92
2017-08-04T07:41:59.850Z,987.94
2017-08-04T07:42:59.751Z,987.93
2017-08-04T07:43:59.531Z,987.95
2017-08-04T07:44:59.524Z,988.01
2017-08-04T18:28:17.499Z,988.77
2017-08-04T18:28:48.442Z,988.76
2017-08-04T18:29:30.396Z,988.78
2017-08-04T18:30:31.587Z,988.75
2017-08-04T18:31:21.190Z,988.76
2017-08-04T18:32:21.101Z,988.78
2017-08-04T18:33:31.476Z,988.82
2017-08-04T18:34:31.572Z,988.77
2017-08-04T18:35:21.186Z,988.86
2017-08-04T18:36:31.277Z,988.85
2017-08-04T18:37:31.622Z,988.94
2017-08-04T18:38:21.260Z,988.90
2017-08-04T18:39:31.435Z,988.90
2017-08-04T18:40:31.473Z,989.03
2017-08-04T18:41:21.208Z,988.97
2017-08-04T18:42:21.307Z,988.89
2017-08-04T18:43:31.444Z,989.03
2017-08-04T18:44:31.513Z,989.02
2017-08-04T18:45:21.145Z,989.05
2017-08-04T18:46:21.228Z,989.02
2017-08-04T18:47:31.468Z,989.06
2017-08-04T18:48:31.582Z,989.13
2017-08-04T18:49:21.226Z,989.14
2017-08-04T18:50:21.178Z,989.20
2017-08-04T18:51:31.368Z,989.10
2017-08-04T18:52:31.548Z,989.13
2017-08-04T18:53:23.720Z,989.24
2017-08-04T18:54:22.108Z,989.15
2017-08-04T18:55:31.710Z,989.12
2017-08-04T18:56:31.809Z,989.06
2017-08-04T18:57:21.382Z,989.10
2017-08-04T18:58:31.670Z,989.11
2017-08-04T18:59:31.560Z,989.14
2017-08-04T19:00:21.314Z,989.10
2017-08-04T19:01:21.385Z,989.20
2017-08-04T19:02:31.435Z,989.16
2017-08-04T19:03:31.738Z,989.10
2017-08-04T19:04:21.795Z,989.12
2017-08-04T19:05:21.212Z,989.14
2017-08-04T19:06:31.483Z,989.16
2017-08-04T19:07:31.520Z,989.14
2017-08-04T19:08:21.325Z,989.19
2017-08-04T19:09:21.266Z,989.20
2017-08-04T19:10:31.583Z,989.18
2017-08-04T19:11:31.569Z,989.15
2017-08-04T19:12:21.297Z,989.20
2017-08-04T19:13:21.308Z,989.24
2017-08-04T19:14:33.892Z,989.20
2017-08-04T19:15:31.532Z,989.21
2017-08-04T19:16:21.383Z,989.32
2017-08-04T19:17:22.701Z,989.22
2017-08-04T19:18:31.907Z,989.28
2017-08-04T19:19:33.954Z,989.25
2017-08-04T19:20:21.493Z,989.26
2017-08-04T19:21:32.988Z,989.28
2017-08-04T19:22:21.203Z,989.27
2017-08-04T19:23:21.288Z,989.27
2017-08-04T19:24:31.682Z,989.26
2017-08-04T19:25:34.790Z,989.29
2017-08-04T19:26:21.494Z,989.29
2017-08-04T19:27:38.581Z,996.32
2017-08-04T19:28:21.252Z,989.30
2017-08-04T19:29:21.325Z,989.34
2017-08-04T19:30:31.676Z,989.31
2017-08-04T19:31:31.607Z,989.44
2017-08-04T19:32:21.535Z,989.38
2017-08-04T19:33:21.302Z,989.35
2017-08-04T19:34:31.531Z,989.44
2017-08-04T19:35:32.327Z,989.46
2017-08-04T19:36:21.496Z,989.40
2017-08-04T19:37:31.641Z,989.47
2017-08-04T19:38:31.504Z,989.43
2017-08-04T19:39:21.435Z,989.39
2017-08-04T19:40:21.888Z,989.48
2017-08-04T19:41:31.752Z,989.50
2017-08-04T19:42:21.328Z,989.52
2017-08-04T19:43:24.578Z,989.55
2017-08-04T19:44:31.663Z,989.56
2017-08-04T19:45:32.770Z,989.57
2017-08-04T19:46:21.502Z,989.63
2017-08-04T19:47:31.812Z,989.55
2017-08-04T19:48:31.677Z,989.62
2017-08-04T19:49:26.859Z,989.61
2017-08-04T19:50:22.863Z,989.58
2017-08-04T19:51:32.782Z,989.64
2017-08-04T19:52:31.785Z,989.54
2017-08-04T19:53:21.609Z,989.61
2017-08-04T19:54:22.260Z,989.60
2017-08-04T19:55:35.719Z,989.66
2017-08-04T19:56:22.666Z,989.68
2017-08-04T19:57:22.219Z,989.61
2017-08-04T19:58:34.743Z,989.69
2017-08-04T19:59:23.458Z,989.73
2017-08-04T20:00:23.500Z,989.66
2017-08-04T20:01:32.464Z,989.64
2017-08-04T20:02:33.578Z,989.70
2017-08-04T20:03:22.321Z,989.78
2017-08-04T20:04:31.704Z,989.74
2017-08-04T20:05:31.894Z,989.72
2017-08-04T20:06:21.518Z,989.73
2017-08-04T20:07:21.509Z,989.74
2017-08-04T20:08:31.884Z,989.81
2017-08-04T20:09:31.761Z,989.73
2017-08-04T20:10:21.476Z,989.79
2017-08-04T20:11:21.483Z,989.77
2017-08-04T20:12:31.750Z,989.82
2017-08-04T20:13:31.758Z,989.74
2017-08-04T20:14:21.401Z,989.75
2017-08-04T20:15:21.485Z,989.82
2017-08-04T20:16:33.877Z,989.75
2017-08-04T20:17:21.489Z,989.81
2017-08-04T20:18:21.391Z,989.76
2017-08-04T20:19:31.752Z,989.81
2017-08-04T20:20:32.577Z,989.84
2017-08-04T20:21:21.712Z,989.85
2017-08-04T20:22:23.457Z,989.88
2017-08-04T20:23:48.563Z,989.93
2017-08-04T20:24:25.581Z,989.87
2017-08-04T20:25:21.495Z,989.87
2017-08-04T20:26:31.758Z,989.92
2017-08-04T20:27:34.055Z,989.89
2017-08-04T20:28:21.609Z,989.95
2017-08-04T20:29:32.963Z,989.94
2017-08-04T20:30:31.909Z,989.93
2017-08-04T20:31:21.570Z,989.93
2017-08-04T20:32:21.680Z,989.99
2017-08-04T20:33:31.850Z,989.95
2017-08-04T20:34:36.646Z,989.94
2017-08-04T20:35:21.449Z,990.04
2017-08-04T20:36:31.975Z,989.99
2017-08-04T20:37:31.938Z,990.06
2017-08-04T20:38:21.616Z,990.03
2017-08-04T20:39:21.549Z,990.04
2017-08-04T20:40:31.693Z,990.14
2017-08-04T20:41:33.045Z,990.08
2017-08-04T20:42:23.271Z,990.05
2017-08-04T20:43:21.524Z,990.05
2017-08-04T20:44:31.941Z,990.08
2017-08-04T20:45:21.453Z,990.07
2017-08-04T20:46:21.523Z,990.10
2017-08-04T20:47:32.062Z,990.11
2017-08-04T20:48:31.835Z,990.09
2017-08-04T20:49:21.519Z,990.02
2017-08-04T20:50:21.485Z,990.08
2017-08-04T20:51:31.840Z,990.08
2017-08-04T20:52:32.334Z,990.10
2017-08-04T20:53:21.648Z,990.11
2017-08-04T20:54:21.580Z,990.07
2017-08-04T20:55:31.744Z,990.08
2017-08-04T20:56:31.991Z,990.11
2017-08-04T20:57:21.576Z,990.10
2017-08-04T20:58:21.495Z,990.14
2017-08-04T20:59:31.777Z,990.16
2017-08-04T21:00:32.132Z,990.17
2017-08-04T21:01:21.489Z,990.15
2017-08-04T21:02:21.501Z,990.16
2017-08-04T21:03:32.066Z,990.14
2017-08-04T21:04:21.495Z,990.15
2017-08-04T21:05:21.499Z,990.17
2017-08-04T21:06:31.712Z,990.19
2017-08-04T21:07:32.064Z,990.19
2017-08-04T21:08:21.949Z,990.14
2017-08-04T21:09:21.512Z,990.19
2017-08-04T21:10:31.870Z,990.22
2017-08-04T21:11:32.254Z,990.17
2017-08-04T21:12:21.623Z,990.25
2017-08-04T21:13:32.015Z,990.20
2017-08-04T21:14:32.052Z,990.24
2017-08-04T21:15:21.674Z,990.28
2017-08-04T21:16:21.510Z,990.17
2017-08-04T21:17:31.798Z,990.21
2017-08-04T21:18:31.954Z,990.25
2017-08-04T21:19:21.635Z,990.26
2017-08-04T21:20:21.575Z,990.24
2017-08-04T21:21:31.807Z,990.19
2017-08-04T21:22:31.845Z,990.24
2017-08-04T21:23:21.787Z,990.26
2017-08-04T21:24:21.549Z,990.24
2017-08-04T21:25:31.915Z,990.17
2017-08-04T21:26:31.947Z,990.20
2017-08-04T21:27:21.679Z,990.17
2017-08-04T21:28:32.217Z,990.25
2017-08-04T21:29:32.147Z,990.23
2017-08-04T21:30:21.680Z,990.17
2017-08-04T21:31:31.948Z,990.33
2017-08-04T21:32:31.780Z,990.22
2017-08-04T21:33:21.707Z,990.26
2017-08-04T21:34:21.676Z,990.23
2017-08-04T21:35:32.134Z,990.29
2017-08-04T21:36:31.988Z,990.22
2017-08-04T21:37:21.711Z,990.22
2017-08-04T21:38:21.737Z,990.27
2017-08-04T21:39:31.900Z,990.26
2017-08-04T21:40:32.033Z,990.27
2017-08-04T21:41:21.645Z,990.41
2017-08-04T21:42:21.681Z,990.32
2017-08-04T21:43:32.027Z,990.29
2017-08-04T21:44:32.179Z,990.29
2017-08-04T21:45:21.691Z,990.26
2017-08-04T21:46:31.918Z,990.29
2017-08-04T21:47:31.951Z,990.30
2017-08-04T21:48:21.789Z,990.33
2017-08-04T21:49:21.726Z,990.34
2017-08-04T21:50:31.872Z,990.31
2017-08-04T21:51:32.024Z,990.30
2017-08-04T21:52:21.646Z,990.31
2017-08-04T21:53:21.983Z,990.39
2017-08-04T21:54:32.028Z,990.39
2017-08-04T21:55:21.706Z,990.33
2017-08-04T21:56:21.746Z,990.40
2017-08-04T21:57:32.010Z,990.42
2017-08-04T21:58:32.147Z,990.38
2017-08-04T21:59:21.779Z,990.41
2017-08-04T22:00:21.921Z,990.33
2017-08-04T22:01:31.983Z,990.38
2017-08-04T22:02:31.914Z,990.32
2017-08-04T22:03:22.029Z,990.41
2017-08-04T22:04:21.663Z,990.48
2017-08-04T22:05:31.930Z,990.42
2017-08-04T22:06:31.971Z,990.46
2017-08-04T22:07:21.898Z,990.51
2017-08-04T22:08:21.850Z,990.49
2017-08-04T22:09:32.113Z,990.44
2017-08-04T22:10:31.990Z,990.56
2017-08-04T22:11:21.723Z,990.46
2017-08-04T22:12:21.801Z,990.54
2017-08-04T22:13:31.951Z,990.53
2017-08-04T22:14:32.107Z,990.51
2017-08-04T22:15:21.872Z,990.52
2017-08-04T22:16:21.750Z,990.58
2017-08-04T22:17:31.936Z,990.51
2017-08-04T22:18:31.969Z,990.52
2017-08-04T22:19:21.787Z,990.53
2017-08-04T22:20:21.832Z,990.60
2017-08-04T22:21:32.016Z,990.56
2017-08-04T22:22:31.970Z,990.58
2017-08-04T22:23:21.971Z,990.57
2017-08-04T22:24:21.833Z,990.58
2017-08-04T22:25:32.090Z,990.54
2017-08-04T22:26:32.038Z,990.61
2017-08-04T22:27:21.747Z,990.54
2017-08-04T22:28:21.889Z,990.60
2017-08-04T22:29:32.240Z,990.65
2017-08-04T22:30:21.905Z,990.58
2017-08-04T22:31:21.831Z,990.67
2017-08-04T22:32:32.085Z,990.69
2017-08-04T22:33:32.231Z,990.70
2017-08-04T22:34:21.937Z,990.64
2017-08-04T22:35:32.011Z,990.64
2017-08-04T22:36:32.090Z,990.63
2017-08-04T22:37:21.842Z,990.62
2017-08-04T22:38:21.769Z,990.68
2017-08-04T22:39:32.133Z,990.74
2017-08-04T22:40:32.069Z,990.69
2017-08-04T22:41:21.880Z,990.64
2017-08-04T22:42:21.858Z,990.67
2017-08-04T22:43:32.210Z,990.65
2017-08-04T22:44:32.257Z,990.73
2017-08-04T22:45:21.771Z,990.70
2017-08-04T22:46:21.917Z,990.71
2017-08-04T22:47:31.982Z,990.68
2017-08-04T22:48:32.040Z,990.72
2017-08-04T22:49:21.978Z,990.68
2017-08-04T22:50:21.873Z,990.73
2017-08-04T22:51:32.237Z,990.69
2017-08-04T22:52:31.988Z,990.74
2017-08-04T22:53:22.023Z,990.83
2017-08-04T22:54:21.853Z,990.82
2017-08-04T22:55:32.032Z,990.78
2017-08-04T22:56:32.064Z,990.80
2017-08-04T22:57:21.980Z,990.82
2017-08-04T22:58:22.120Z,990.81
2017-08-04T22:59:32.070Z,990.92
2017-08-04T23:00:32.137Z,990.91
2017-08-04T23:01:21.842Z,990.91
2017-08-04T23:02:21.873Z,990.84
2017-08-04T23:03:32.163Z,990.81
2017-08-04T23:04:32.109Z,990.91
2017-08-04T23:05:21.814Z,990.90
2017-08-04T23:06:21.854Z,990.86
2017-08-04T23:07:32.106Z,990.87
2017-08-04T23:08:32.145Z,990.90